sensor_id;sensor_type;location;lat;lon;timestamp;temperature;humidity
73572;DHT22;61854;48.510;-2.770;2023-05-16T00:01:10;11.00;93.10
73572;DHT22;61854;48.510;-2.770;2023-05-16T00:03:37;11.10;93.10
73572;DHT22;61854;48.510;-2.770;2023-05-16T00:06:03;11.10;93.10
73572;DHT22;61854;48.510;-2.770;2023-05-16T00:08:29;11.10;93.10
73572;DHT22;61854;48.510;-2.770;2023-05-16T00:10:55;11.10;93.10
73572;DHT22;61854;48.510;-2.770;2023-05-16T00:13:20;11.10;93.30
73572;DHT22;61854;48.510;-2.770;2023-05-16T00:15:49;11.10;93.30
73572;DHT22;61854;48.510;-2.770;2023-05-16T00:18:16;11.10;93.20
73572;DHT22;61854;48.510;-2.770;2023-05-16T00:20:42;11.10;93.40
73572;DHT22;61854;48.510;-2.770;2023-05-16T00:23:07;11.20;93.20
73572;DHT22;61854;48.510;-2.770;2023-05-16T00:25:33;11.10;93.20
73572;DHT22;61854;48.510;-2.770;2023-05-16T00:27:59;11.10;93.30
73572;DHT22;61854;48.510;-2.770;2023-05-16T00:30:24;11.10;93.30
73572;DHT22;61854;48.510;-2.770;2023-05-16T00:32:50;11.10;93.30
73572;DHT22;61854;48.510;-2.770;2023-05-16T00:35:15;11.10;93.30
73572;DHT22;61854;48.510;-2.770;2023-05-16T00:37:41;11.10;93.70
73572;DHT22;61854;48.510;-2.770;2023-05-16T00:40:06;11.10;93.50
73572;DHT22;61854;48.510;-2.770;2023-05-16T00:42:32;11.10;93.50
73572;DHT22;61854;48.510;-2.770;2023-05-16T00:44:58;11.10;93.50
73572;DHT22;61854;48.510;-2.770;2023-05-16T00:47:23;11.10;93.50
73572;DHT22;61854;48.510;-2.770;2023-05-16T00:49:49;11.10;93.60
73572;DHT22;61854;48.510;-2.770;2023-05-16T00:52:14;11.10;93.40
73572;DHT22;61854;48.510;-2.770;2023-05-16T00:54:40;11.10;93.50
73572;DHT22;61854;48.510;-2.770;2023-05-16T00:57:06;11.10;93.40
73572;DHT22;61854;48.510;-2.770;2023-05-16T00:59:31;11.10;93.40
73572;DHT22;61854;48.510;-2.770;2023-05-16T01:01:57;11.10;93.50
73572;DHT22;61854;48.510;-2.770;2023-05-16T01:04:23;11.10;93.60
73572;DHT22;61854;48.510;-2.770;2023-05-16T01:06:49;11.10;93.60
73572;DHT22;61854;48.510;-2.770;2023-05-16T01:09:14;11.10;93.70
73572;DHT22;61854;48.510;-2.770;2023-05-16T01:16:52;11.10;93.80
73572;DHT22;61854;48.510;-2.770;2023-05-16T01:21:48;11.00;93.80
73572;DHT22;61854;48.510;-2.770;2023-05-16T01:24:26;11.00;93.70
73572;DHT22;61854;48.510;-2.770;2023-05-16T01:26:54;11.00;93.60
73572;DHT22;61854;48.510;-2.770;2023-05-16T01:29:20;11.00;93.50
73572;DHT22;61854;48.510;-2.770;2023-05-16T01:31:46;10.90;93.30
73572;DHT22;61854;48.510;-2.770;2023-05-16T01:34:11;10.80;93.20
73572;DHT22;61854;48.510;-2.770;2023-05-16T01:36:47;10.70;93.30
73572;DHT22;61854;48.510;-2.770;2023-05-16T01:40:06;10.70;93.40
73572;DHT22;61854;48.510;-2.770;2023-05-16T01:44:35;10.50;93.70
73572;DHT22;61854;48.510;-2.770;2023-05-16T01:47:02;10.40;93.90
73572;DHT22;61854;48.510;-2.770;2023-05-16T01:49:33;10.40;94.00
73572;DHT22;61854;48.510;-2.770;2023-05-16T01:52:00;10.40;94.10
73572;DHT22;61854;48.510;-2.770;2023-05-16T01:54:30;10.30;94.10
73572;DHT22;61854;48.510;-2.770;2023-05-16T01:56:56;10.30;94.20
73572;DHT22;61854;48.510;-2.770;2023-05-16T01:59:22;10.20;94.20
73572;DHT22;61854;48.510;-2.770;2023-05-16T02:01:48;10.20;94.40
73572;DHT22;61854;48.510;-2.770;2023-05-16T02:04:14;10.20;94.50
73572;DHT22;61854;48.510;-2.770;2023-05-16T02:06:40;10.20;94.70
73572;DHT22;61854;48.510;-2.770;2023-05-16T02:09:06;10.10;94.60
73572;DHT22;61854;48.510;-2.770;2023-05-16T02:11:31;10.10;94.70
73572;DHT22;61854;48.510;-2.770;2023-05-16T02:13:57;10.10;94.80
73572;DHT22;61854;48.510;-2.770;2023-05-16T02:16:23;10.10;94.80
73572;DHT22;61854;48.510;-2.770;2023-05-16T02:18:48;10.10;94.90
73572;DHT22;61854;48.510;-2.770;2023-05-16T02:21:13;10.00;95.40
73572;DHT22;61854;48.510;-2.770;2023-05-16T02:23:39;10.00;95.00
73572;DHT22;61854;48.510;-2.770;2023-05-16T02:26:04;10.00;95.10
73572;DHT22;61854;48.510;-2.770;2023-05-16T02:28:30;10.00;95.20
73572;DHT22;61854;48.510;-2.770;2023-05-16T02:30:56;10.00;95.20
73572;DHT22;61854;48.510;-2.770;2023-05-16T02:33:22;10.00;95.30
73572;DHT22;61854;48.510;-2.770;2023-05-16T02:35:48;10.00;95.30
73572;DHT22;61854;48.510;-2.770;2023-05-16T02:38:14;9.90;95.40
73572;DHT22;61854;48.510;-2.770;2023-05-16T02:40:42;9.90;95.50
73572;DHT22;61854;48.510;-2.770;2023-05-16T02:43:07;9.90;95.60
73572;DHT22;61854;48.510;-2.770;2023-05-16T02:45:33;9.90;95.60
73572;DHT22;61854;48.510;-2.770;2023-05-16T02:47:58;9.90;95.60
73572;DHT22;61854;48.510;-2.770;2023-05-16T02:50:24;9.90;95.70
73572;DHT22;61854;48.510;-2.770;2023-05-16T02:52:49;9.90;95.80
73572;DHT22;61854;48.510;-2.770;2023-05-16T02:55:15;9.90;95.80
73572;DHT22;61854;48.510;-2.770;2023-05-16T02:57:41;9.80;95.80
73572;DHT22;61854;48.510;-2.770;2023-05-16T03:00:06;9.80;96.00
73572;DHT22;61854;48.510;-2.770;2023-05-16T03:02:34;9.80;96.00
73572;DHT22;61854;48.510;-2.770;2023-05-16T03:05:00;9.80;95.90
73572;DHT22;61854;48.510;-2.770;2023-05-16T03:07:25;9.80;95.90
73572;DHT22;61854;48.510;-2.770;2023-05-16T03:09:51;9.80;95.90
73572;DHT22;61854;48.510;-2.770;2023-05-16T03:12:16;9.80;96.00
73572;DHT22;61854;48.510;-2.770;2023-05-16T03:14:42;9.80;95.90
73572;DHT22;61854;48.510;-2.770;2023-05-16T03:17:07;9.80;96.00
73572;DHT22;61854;48.510;-2.770;2023-05-16T03:19:33;9.80;96.10
73572;DHT22;61854;48.510;-2.770;2023-05-16T03:21:59;9.80;96.00
73572;DHT22;61854;48.510;-2.770;2023-05-16T03:24:24;9.70;96.00
73572;DHT22;61854;48.510;-2.770;2023-05-16T03:26:50;9.70;96.00
73572;DHT22;61854;48.510;-2.770;2023-05-16T03:29:16;9.60;96.10
73572;DHT22;61854;48.510;-2.770;2023-05-16T03:31:41;9.60;96.10
73572;DHT22;61854;48.510;-2.770;2023-05-16T03:34:07;9.60;96.20
73572;DHT22;61854;48.510;-2.770;2023-05-16T03:36:32;9.60;96.20
73572;DHT22;61854;48.510;-2.770;2023-05-16T03:38:58;9.50;96.30
73572;DHT22;61854;48.510;-2.770;2023-05-16T03:41:23;9.50;96.30
73572;DHT22;61854;48.510;-2.770;2023-05-16T03:43:50;9.50;96.50
73572;DHT22;61854;48.510;-2.770;2023-05-16T03:46:16;9.50;96.70
73572;DHT22;61854;48.510;-2.770;2023-05-16T03:48:41;9.50;96.80
73572;DHT22;61854;48.510;-2.770;2023-05-16T03:51:07;9.50;96.80
73572;DHT22;61854;48.510;-2.770;2023-05-16T03:53:32;9.50;96.80
73572;DHT22;61854;48.510;-2.770;2023-05-16T03:55:58;9.50;96.90
73572;DHT22;61854;48.510;-2.770;2023-05-16T03:58:24;9.50;96.80
73572;DHT22;61854;48.510;-2.770;2023-05-16T04:00:49;9.50;96.80
73572;DHT22;61854;48.510;-2.770;2023-05-16T04:03:15;9.50;96.80
73572;DHT22;61854;48.510;-2.770;2023-05-16T04:05:40;9.50;96.80
73572;DHT22;61854;48.510;-2.770;2023-05-16T04:08:06;9.50;97.20
73572;DHT22;61854;48.510;-2.770;2023-05-16T04:10:32;9.50;96.60
73572;DHT22;61854;48.510;-2.770;2023-05-16T04:12:57;9.40;96.70
73572;DHT22;61854;48.510;-2.770;2023-05-16T04:15:23;9.40;96.70
73572;DHT22;61854;48.510;-2.770;2023-05-16T04:17:48;9.40;96.70
73572;DHT22;61854;48.510;-2.770;2023-05-16T04:20:14;9.30;96.70
73572;DHT22;61854;48.510;-2.770;2023-05-16T04:22:39;9.30;96.80
73572;DHT22;61854;48.510;-2.770;2023-05-16T04:25:05;9.30;96.90
73572;DHT22;61854;48.510;-2.770;2023-05-16T04:27:31;9.20;96.90
73572;DHT22;61854;48.510;-2.770;2023-05-16T04:29:56;9.20;96.90
73572;DHT22;61854;48.510;-2.770;2023-05-16T04:32:23;9.20;97.10
73572;DHT22;61854;48.510;-2.770;2023-05-16T04:34:49;9.20;97.10
73572;DHT22;61854;48.510;-2.770;2023-05-16T04:37:17;9.20;97.10
73572;DHT22;61854;48.510;-2.770;2023-05-16T04:39:43;9.20;97.10
73572;DHT22;61854;48.510;-2.770;2023-05-16T04:42:08;9.20;97.20
73572;DHT22;61854;48.510;-2.770;2023-05-16T04:44:33;9.20;97.20
73572;DHT22;61854;48.510;-2.770;2023-05-16T04:46:59;9.20;97.20
73572;DHT22;61854;48.510;-2.770;2023-05-16T04:49:25;9.20;97.10
73572;DHT22;61854;48.510;-2.770;2023-05-16T04:51:50;9.20;97.10
73572;DHT22;61854;48.510;-2.770;2023-05-16T04:54:16;9.20;97.20
73572;DHT22;61854;48.510;-2.770;2023-05-16T04:56:43;9.30;97.30
73572;DHT22;61854;48.510;-2.770;2023-05-16T04:59:09;9.30;97.30
73572;DHT22;61854;48.510;-2.770;2023-05-16T05:01:34;9.30;97.20
73572;DHT22;61854;48.510;-2.770;2023-05-16T05:04:01;9.40;97.10
73572;DHT22;61854;48.510;-2.770;2023-05-16T05:06:26;9.30;96.90
73572;DHT22;61854;48.510;-2.770;2023-05-16T05:08:52;9.30;96.90
73572;DHT22;61854;48.510;-2.770;2023-05-16T05:11:18;9.30;96.90
73572;DHT22;61854;48.510;-2.770;2023-05-16T05:13:44;9.30;97.00
73572;DHT22;61854;48.510;-2.770;2023-05-16T05:16:10;9.30;96.90
73572;DHT22;61854;48.510;-2.770;2023-05-16T05:18:35;9.30;97.00
73572;DHT22;61854;48.510;-2.770;2023-05-16T05:21:01;9.30;97.10
73572;DHT22;61854;48.510;-2.770;2023-05-16T05:23:26;9.30;97.10
73572;DHT22;61854;48.510;-2.770;2023-05-16T05:25:52;9.30;97.30
73572;DHT22;61854;48.510;-2.770;2023-05-16T05:28:18;9.40;97.40
73572;DHT22;61854;48.510;-2.770;2023-05-16T05:30:44;9.40;97.40
73572;DHT22;61854;48.510;-2.770;2023-05-16T05:33:10;9.40;97.30
73572;DHT22;61854;48.510;-2.770;2023-05-16T05:35:36;9.40;97.20
73572;DHT22;61854;48.510;-2.770;2023-05-16T05:38:02;9.50;97.30
73572;DHT22;61854;48.510;-2.770;2023-05-16T05:40:27;9.50;97.40
73572;DHT22;61854;48.510;-2.770;2023-05-16T05:42:53;9.50;97.40
73572;DHT22;61854;48.510;-2.770;2023-05-16T05:45:18;9.60;97.50
73572;DHT22;61854;48.510;-2.770;2023-05-16T05:47:44;9.60;97.50
73572;DHT22;61854;48.510;-2.770;2023-05-16T05:50:10;9.60;97.50
73572;DHT22;61854;48.510;-2.770;2023-05-16T05:52:36;9.70;97.50
73572;DHT22;61854;48.510;-2.770;2023-05-16T05:55:02;9.70;97.40
73572;DHT22;61854;48.510;-2.770;2023-05-16T05:57:27;9.70;97.40
73572;DHT22;61854;48.510;-2.770;2023-05-16T05:59:53;9.80;97.40
73572;DHT22;61854;48.510;-2.770;2023-05-16T06:02:19;9.80;97.40
73572;DHT22;61854;48.510;-2.770;2023-05-16T06:04:45;9.80;97.50
73572;DHT22;61854;48.510;-2.770;2023-05-16T06:07:10;9.80;97.50
73572;DHT22;61854;48.510;-2.770;2023-05-16T06:09:36;9.90;97.50
73572;DHT22;61854;48.510;-2.770;2023-05-16T06:12:01;9.90;97.80
73572;DHT22;61854;48.510;-2.770;2023-05-16T06:14:28;10.00;97.70
73572;DHT22;61854;48.510;-2.770;2023-05-16T06:16:53;10.10;97.80
73572;DHT22;61854;48.510;-2.770;2023-05-16T06:19:19;10.20;97.80
73572;DHT22;61854;48.510;-2.770;2023-05-16T06:21:44;10.30;97.70
73572;DHT22;61854;48.510;-2.770;2023-05-16T06:24:10;10.30;97.60
73572;DHT22;61854;48.510;-2.770;2023-05-16T06:26:36;10.30;97.70
73572;DHT22;61854;48.510;-2.770;2023-05-16T06:29:02;10.40;97.70
73572;DHT22;61854;48.510;-2.770;2023-05-16T06:31:27;10.40;97.80
73572;DHT22;61854;48.510;-2.770;2023-05-16T06:33:53;10.40;97.80
73572;DHT22;61854;48.510;-2.770;2023-05-16T06:36:18;10.50;97.80
73572;DHT22;61854;48.510;-2.770;2023-05-16T06:38:44;10.50;97.70
73572;DHT22;61854;48.510;-2.770;2023-05-16T06:41:09;10.50;97.60
73572;DHT22;61854;48.510;-2.770;2023-05-16T06:43:35;10.60;97.60
73572;DHT22;61854;48.510;-2.770;2023-05-16T06:46:01;10.60;97.60
73572;DHT22;61854;48.510;-2.770;2023-05-16T06:48:26;10.70;97.60
73572;DHT22;61854;48.510;-2.770;2023-05-16T06:50:52;10.70;97.70
73572;DHT22;61854;48.510;-2.770;2023-05-16T06:53:18;10.80;97.70
73572;DHT22;61854;48.510;-2.770;2023-05-16T06:55:44;10.90;97.60
73572;DHT22;61854;48.510;-2.770;2023-05-16T06:58:09;10.90;97.40
73572;DHT22;61854;48.510;-2.770;2023-05-16T07:00:35;11.00;97.40
73572;DHT22;61854;48.510;-2.770;2023-05-16T07:03:01;11.00;97.30
73572;DHT22;61854;48.510;-2.770;2023-05-16T07:05:26;11.10;97.50
73572;DHT22;61854;48.510;-2.770;2023-05-16T07:07:52;11.20;97.50
73572;DHT22;61854;48.510;-2.770;2023-05-16T07:10:17;11.30;97.30
73572;DHT22;61854;48.510;-2.770;2023-05-16T07:12:43;11.40;96.90
73572;DHT22;61854;48.510;-2.770;2023-05-16T07:15:09;11.40;96.80
73572;DHT22;61854;48.510;-2.770;2023-05-16T07:17:34;11.40;96.80
73572;DHT22;61854;48.510;-2.770;2023-05-16T07:20:00;11.40;96.80
73572;DHT22;61854;48.510;-2.770;2023-05-16T07:22:26;11.40;96.80
73572;DHT22;61854;48.510;-2.770;2023-05-16T07:24:52;11.50;96.70
73572;DHT22;61854;48.510;-2.770;2023-05-16T07:27:21;11.50;96.70
73572;DHT22;61854;48.510;-2.770;2023-05-16T07:29:47;11.50;96.80
73572;DHT22;61854;48.510;-2.770;2023-05-16T07:32:12;11.50;96.80
73572;DHT22;61854;48.510;-2.770;2023-05-16T07:34:38;11.50;96.90
73572;DHT22;61854;48.510;-2.770;2023-05-16T07:37:03;11.60;97.10
73572;DHT22;61854;48.510;-2.770;2023-05-16T07:39:31;11.60;97.20
73572;DHT22;61854;48.510;-2.770;2023-05-16T07:41:56;11.70;97.20
73572;DHT22;61854;48.510;-2.770;2023-05-16T07:44:22;11.80;97.10
73572;DHT22;61854;48.510;-2.770;2023-05-16T07:46:48;11.90;97.00
73572;DHT22;61854;48.510;-2.770;2023-05-16T07:49:13;12.00;96.90
73572;DHT22;61854;48.510;-2.770;2023-05-16T07:51:39;12.10;96.90
73572;DHT22;61854;48.510;-2.770;2023-05-16T07:54:04;12.10;96.90
73572;DHT22;61854;48.510;-2.770;2023-05-16T07:56:30;12.20;96.80
73572;DHT22;61854;48.510;-2.770;2023-05-16T07:58:55;12.30;96.20
73572;DHT22;61854;48.510;-2.770;2023-05-16T08:01:21;12.40;96.10
73572;DHT22;61854;48.510;-2.770;2023-05-16T08:03:46;12.50;95.80
73572;DHT22;61854;48.510;-2.770;2023-05-16T08:06:12;12.60;95.50
73572;DHT22;61854;48.510;-2.770;2023-05-16T08:08:37;12.60;94.90
73572;DHT22;61854;48.510;-2.770;2023-05-16T08:11:03;12.70;95.00
73572;DHT22;61854;48.510;-2.770;2023-05-16T08:13:29;12.70;94.70
73572;DHT22;61854;48.510;-2.770;2023-05-16T08:15:56;12.80;94.00
73572;DHT22;61854;48.510;-2.770;2023-05-16T08:18:21;12.80;93.00
73572;DHT22;61854;48.510;-2.770;2023-05-16T08:20:47;12.80;93.30
73572;DHT22;61854;48.510;-2.770;2023-05-16T08:23:12;12.90;92.90
73572;DHT22;61854;48.510;-2.770;2023-05-16T08:25:38;12.90;92.50
73572;DHT22;61854;48.510;-2.770;2023-05-16T08:28:03;12.90;92.00
73572;DHT22;61854;48.510;-2.770;2023-05-16T08:30:29;12.90;91.90
73572;DHT22;61854;48.510;-2.770;2023-05-16T08:32:55;12.90;91.40
73572;DHT22;61854;48.510;-2.770;2023-05-16T08:35:20;13.00;91.10
73572;DHT22;61854;48.510;-2.770;2023-05-16T08:37:46;13.00;91.10
73572;DHT22;61854;48.510;-2.770;2023-05-16T08:40:11;13.00;91.80
73572;DHT22;61854;48.510;-2.770;2023-05-16T08:42:38;13.10;92.00
73572;DHT22;61854;48.510;-2.770;2023-05-16T08:45:04;13.10;91.90
73572;DHT22;61854;48.510;-2.770;2023-05-16T08:47:31;13.20;90.70
73572;DHT22;61854;48.510;-2.770;2023-05-16T08:49:57;13.20;90.40
73572;DHT22;61854;48.510;-2.770;2023-05-16T08:52:25;13.20;88.50
73572;DHT22;61854;48.510;-2.770;2023-05-16T08:54:51;13.30;87.80
73572;DHT22;61854;48.510;-2.770;2023-05-16T08:57:16;13.30;86.40
73572;DHT22;61854;48.510;-2.770;2023-05-16T08:59:43;13.30;87.30
73572;DHT22;61854;48.510;-2.770;2023-05-16T09:02:09;13.40;88.60
73572;DHT22;61854;48.510;-2.770;2023-05-16T09:04:36;13.40;88.40
73572;DHT22;61854;48.510;-2.770;2023-05-16T09:07:02;13.40;88.20
73572;DHT22;61854;48.510;-2.770;2023-05-16T09:09:27;13.40;88.30
73572;DHT22;61854;48.510;-2.770;2023-05-16T09:11:54;13.40;90.10
73572;DHT22;61854;48.510;-2.770;2023-05-16T09:14:20;13.50;90.50
73572;DHT22;61854;48.510;-2.770;2023-05-16T09:17:01;13.50;90.70
73572;DHT22;61854;48.510;-2.770;2023-05-16T09:19:31;13.60;88.30
73572;DHT22;61854;48.510;-2.770;2023-05-16T09:21:56;13.60;86.10
73572;DHT22;61854;48.510;-2.770;2023-05-16T09:24:22;13.60;85.60
73572;DHT22;61854;48.510;-2.770;2023-05-16T09:26:49;13.70;86.10
73572;DHT22;61854;48.510;-2.770;2023-05-16T09:29:15;13.70;82.40
73572;DHT22;61854;48.510;-2.770;2023-05-16T09:31:41;13.70;84.20
73572;DHT22;61854;48.510;-2.770;2023-05-16T09:34:07;13.80;85.00
73572;DHT22;61854;48.510;-2.770;2023-05-16T09:36:33;13.90;85.00
73572;DHT22;61854;48.510;-2.770;2023-05-16T09:38:59;13.90;85.10
73572;DHT22;61854;48.510;-2.770;2023-05-16T09:41:25;14.00;84.20
73572;DHT22;61854;48.510;-2.770;2023-05-16T09:43:50;14.00;85.10
73572;DHT22;61854;48.510;-2.770;2023-05-16T09:46:16;14.00;86.90
73572;DHT22;61854;48.510;-2.770;2023-05-16T09:48:45;14.00;87.20
73572;DHT22;61854;48.510;-2.770;2023-05-16T09:51:11;14.00;86.00
73572;DHT22;61854;48.510;-2.770;2023-05-16T09:53:37;13.90;86.30
73572;DHT22;61854;48.510;-2.770;2023-05-16T09:56:06;13.90;87.40
73572;DHT22;61854;48.510;-2.770;2023-05-16T09:58:33;13.90;87.80
73572;DHT22;61854;48.510;-2.770;2023-05-16T10:00:59;13.80;87.70
73572;DHT22;61854;48.510;-2.770;2023-05-16T10:03:25;13.80;88.30
73572;DHT22;61854;48.510;-2.770;2023-05-16T10:05:51;13.80;87.80
73572;DHT22;61854;48.510;-2.770;2023-05-16T10:08:19;13.80;86.50
73572;DHT22;61854;48.510;-2.770;2023-05-16T10:10:45;13.80;88.90
73572;DHT22;61854;48.510;-2.770;2023-05-16T10:13:14;13.70;89.30
73572;DHT22;61854;48.510;-2.770;2023-05-16T10:15:39;13.70;90.30
73572;DHT22;61854;48.510;-2.770;2023-05-16T10:18:06;13.80;90.70
73572;DHT22;61854;48.510;-2.770;2023-05-16T10:20:36;13.80;90.50
73572;DHT22;61854;48.510;-2.770;2023-05-16T10:23:02;13.80;91.00
73572;DHT22;61854;48.510;-2.770;2023-05-16T10:25:29;13.90;90.60
73572;DHT22;61854;48.510;-2.770;2023-05-16T10:27:56;13.90;88.10
73572;DHT22;61854;48.510;-2.770;2023-05-16T10:30:22;13.90;90.00
73572;DHT22;61854;48.510;-2.770;2023-05-16T10:32:48;13.80;90.70
73572;DHT22;61854;48.510;-2.770;2023-05-16T10:35:14;13.80;90.50
73572;DHT22;61854;48.510;-2.770;2023-05-16T10:37:39;13.80;89.80
73572;DHT22;61854;48.510;-2.770;2023-05-16T10:40:06;13.80;90.20
73572;DHT22;61854;48.510;-2.770;2023-05-16T10:42:33;13.80;90.40
73572;DHT22;61854;48.510;-2.770;2023-05-16T10:47:39;13.90;89.60
73572;DHT22;61854;48.510;-2.770;2023-05-16T10:50:05;13.90;90.30
73572;DHT22;61854;48.510;-2.770;2023-05-16T10:52:34;14.00;90.60
73572;DHT22;61854;48.510;-2.770;2023-05-16T10:55:01;14.00;89.80
73572;DHT22;61854;48.510;-2.770;2023-05-16T10:57:27;14.00;90.00
73572;DHT22;61854;48.510;-2.770;2023-05-16T10:59:52;13.90;90.00
73572;DHT22;61854;48.510;-2.770;2023-05-16T11:04:49;13.90;89.10
73572;DHT22;61854;48.510;-2.770;2023-05-16T11:07:19;13.90;90.40
73572;DHT22;61854;48.510;-2.770;2023-05-16T11:09:49;13.90;89.80
73572;DHT22;61854;48.510;-2.770;2023-05-16T11:12:19;14.00;90.70
73572;DHT22;61854;48.510;-2.770;2023-05-16T11:14:45;14.10;89.70
73572;DHT22;61854;48.510;-2.770;2023-05-16T11:17:15;14.10;89.00
73572;DHT22;61854;48.510;-2.770;2023-05-16T11:24:55;14.20;89.50
73572;DHT22;61854;48.510;-2.770;2023-05-16T11:27:30;14.20;87.50
73572;DHT22;61854;48.510;-2.770;2023-05-16T11:32:34;14.30;87.60
73572;DHT22;61854;48.510;-2.770;2023-05-16T11:35:00;14.30;88.00
73572;DHT22;61854;48.510;-2.770;2023-05-16T11:37:26;14.40;86.80
73572;DHT22;61854;48.510;-2.770;2023-05-16T11:39:52;14.40;85.90
73572;DHT22;61854;48.510;-2.770;2023-05-16T11:42:18;14.30;86.70
73572;DHT22;61854;48.510;-2.770;2023-05-16T11:44:44;14.30;85.90
73572;DHT22;61854;48.510;-2.770;2023-05-16T11:47:10;14.30;86.60
73572;DHT22;61854;48.510;-2.770;2023-05-16T11:49:36;14.30;87.20
73572;DHT22;61854;48.510;-2.770;2023-05-16T11:52:02;14.30;85.40
73572;DHT22;61854;48.510;-2.770;2023-05-16T11:54:28;14.20;87.10
73572;DHT22;61854;48.510;-2.770;2023-05-16T11:56:53;14.20;87.80
73572;DHT22;61854;48.510;-2.770;2023-05-16T11:59:19;14.30;86.20
73572;DHT22;61854;48.510;-2.770;2023-05-16T12:01:45;14.30;86.50
73572;DHT22;61854;48.510;-2.770;2023-05-16T12:04:13;14.30;86.50
73572;DHT22;61854;48.510;-2.770;2023-05-16T12:06:40;14.40;86.30
73572;DHT22;61854;48.510;-2.770;2023-05-16T12:09:10;14.50;86.40
73572;DHT22;61854;48.510;-2.770;2023-05-16T12:11:37;14.50;86.30
73572;DHT22;61854;48.510;-2.770;2023-05-16T12:14:03;14.60;84.10
73572;DHT22;61854;48.510;-2.770;2023-05-16T12:16:29;14.60;84.70
73572;DHT22;61854;48.510;-2.770;2023-05-16T12:18:56;14.70;83.70
73572;DHT22;61854;48.510;-2.770;2023-05-16T12:21:21;14.70;81.40
73572;DHT22;61854;48.510;-2.770;2023-05-16T12:23:47;14.70;80.30
73572;DHT22;61854;48.510;-2.770;2023-05-16T12:26:13;14.70;80.80
73572;DHT22;61854;48.510;-2.770;2023-05-16T12:28:38;14.70;79.50
73572;DHT22;61854;48.510;-2.770;2023-05-16T12:31:10;14.80;80.70
73572;DHT22;61854;48.510;-2.770;2023-05-16T12:33:37;14.80;80.80
73572;DHT22;61854;48.510;-2.770;2023-05-16T13:28:38;18.90;57.10
73572;DHT22;61854;48.510;-2.770;2023-05-16T13:31:04;18.80;59.30
73572;DHT22;61854;48.510;-2.770;2023-05-16T13:33:30;18.80;57.40
73572;DHT22;61854;48.510;-2.770;2023-05-16T13:35:55;18.80;56.40
73572;DHT22;61854;48.510;-2.770;2023-05-16T13:38:21;18.90;56.20
73572;DHT22;61854;48.510;-2.770;2023-05-16T13:40:46;18.90;56.60
73572;DHT22;61854;48.510;-2.770;2023-05-16T13:43:12;19.00;52.90
73572;DHT22;61854;48.510;-2.770;2023-05-16T13:45:39;19.00;52.60
73572;DHT22;61854;48.510;-2.770;2023-05-16T13:48:05;19.10;53.80
73572;DHT22;61854;48.510;-2.770;2023-05-16T13:50:31;19.40;54.00
73572;DHT22;61854;48.510;-2.770;2023-05-16T13:52:57;19.60;48.60
73572;DHT22;61854;48.510;-2.770;2023-05-16T13:55:22;19.60;49.30
73572;DHT22;61854;48.510;-2.770;2023-05-16T13:57:48;19.60;49.00
73572;DHT22;61854;48.510;-2.770;2023-05-16T14:00:14;19.70;51.40
73572;DHT22;61854;48.510;-2.770;2023-05-16T14:02:39;20.00;50.10
73572;DHT22;61854;48.510;-2.770;2023-05-16T14:05:05;20.20;47.50
73572;DHT22;61854;48.510;-2.770;2023-05-16T14:07:31;20.10;50.80
73572;DHT22;61854;48.510;-2.770;2023-05-16T14:09:57;20.20;49.30
73572;DHT22;61854;48.510;-2.770;2023-05-16T14:12:22;20.10;48.90
73572;DHT22;61854;48.510;-2.770;2023-05-16T14:14:48;20.10;51.20
73572;DHT22;61854;48.510;-2.770;2023-05-16T14:17:13;20.30;48.90
73572;DHT22;61854;48.510;-2.770;2023-05-16T14:19:39;20.30;49.50
73572;DHT22;61854;48.510;-2.770;2023-05-16T14:22:04;20.40;50.80
73572;DHT22;61854;48.510;-2.770;2023-05-16T14:24:30;20.70;49.50
73572;DHT22;61854;48.510;-2.770;2023-05-16T14:26:55;21.00;48.60
73572;DHT22;61854;48.510;-2.770;2023-05-16T14:29:21;21.00;48.20
73572;DHT22;61854;48.510;-2.770;2023-05-16T14:31:47;21.10;46.80
73572;DHT22;61854;48.510;-2.770;2023-05-16T14:34:12;21.20;47.00
73572;DHT22;61854;48.510;-2.770;2023-05-16T14:36:38;21.30;45.10
73572;DHT22;61854;48.510;-2.770;2023-05-16T14:39:03;21.40;44.40
73572;DHT22;61854;48.510;-2.770;2023-05-16T14:41:29;21.60;45.00
73572;DHT22;61854;48.510;-2.770;2023-05-16T14:43:54;21.90;45.00
73572;DHT22;61854;48.510;-2.770;2023-05-16T14:46:20;22.10;44.10
73572;DHT22;61854;48.510;-2.770;2023-05-16T14:48:45;21.90;44.20
73572;DHT22;61854;48.510;-2.770;2023-05-16T14:51:11;21.70;43.80
73572;DHT22;61854;48.510;-2.770;2023-05-16T14:53:37;21.50;44.10
73572;DHT22;61854;48.510;-2.770;2023-05-16T14:56:02;21.30;46.40
73572;DHT22;61854;48.510;-2.770;2023-05-16T14:58:28;21.40;45.10
73572;DHT22;61854;48.510;-2.770;2023-05-16T15:00:54;21.50;45.10
73572;DHT22;61854;48.510;-2.770;2023-05-16T15:03:19;21.20;45.60
73572;DHT22;61854;48.510;-2.770;2023-05-16T15:05:45;21.40;45.30
73572;DHT22;61854;48.510;-2.770;2023-05-16T15:08:10;21.30;45.50
73572;DHT22;61854;48.510;-2.770;2023-05-16T15:10:36;21.50;45.10
73572;DHT22;61854;48.510;-2.770;2023-05-16T15:13:01;21.90;43.30
73572;DHT22;61854;48.510;-2.770;2023-05-16T15:15:27;22.30;42.00
73572;DHT22;61854;48.510;-2.770;2023-05-16T15:17:53;22.50;41.00
73572;DHT22;61854;48.510;-2.770;2023-05-16T15:20:19;22.90;39.10
73572;DHT22;61854;48.510;-2.770;2023-05-16T15:22:45;22.90;37.20
73572;DHT22;61854;48.510;-2.770;2023-05-16T15:25:10;22.60;36.20
73572;DHT22;61854;48.510;-2.770;2023-05-16T15:27:36;22.20;36.00
73572;DHT22;61854;48.510;-2.770;2023-05-16T15:30:01;22.00;36.10
73572;DHT22;61854;48.510;-2.770;2023-05-16T15:32:27;21.90;37.30
73572;DHT22;61854;48.510;-2.770;2023-05-16T15:34:53;22.00;36.80
73572;DHT22;61854;48.510;-2.770;2023-05-16T15:37:19;22.10;35.30
73572;DHT22;61854;48.510;-2.770;2023-05-16T15:39:44;22.10;34.00
73572;DHT22;61854;48.510;-2.770;2023-05-16T15:42:10;22.20;34.50
73572;DHT22;61854;48.510;-2.770;2023-05-16T15:44:35;22.40;33.50
73572;DHT22;61854;48.510;-2.770;2023-05-16T15:47:01;22.50;34.10
73572;DHT22;61854;48.510;-2.770;2023-05-16T15:49:26;22.70;32.80
73572;DHT22;61854;48.510;-2.770;2023-05-16T15:51:52;22.70;34.00
73572;DHT22;61854;48.510;-2.770;2023-05-16T15:54:18;22.60;33.50
73572;DHT22;61854;48.510;-2.770;2023-05-16T15:56:43;22.40;34.80
73572;DHT22;61854;48.510;-2.770;2023-05-16T15:59:09;22.20;34.60
73572;DHT22;61854;48.510;-2.770;2023-05-16T16:01:34;22.30;34.90
73572;DHT22;61854;48.510;-2.770;2023-05-16T16:04:00;22.30;34.30
73572;DHT22;61854;48.510;-2.770;2023-05-16T16:06:26;22.20;34.30
73572;DHT22;61854;48.510;-2.770;2023-05-16T16:08:51;22.10;35.10
73572;DHT22;61854;48.510;-2.770;2023-05-16T16:11:20;22.10;36.00
73572;DHT22;61854;48.510;-2.770;2023-05-16T16:13:49;22.40;35.00
73572;DHT22;61854;48.510;-2.770;2023-05-16T16:16:17;22.70;35.10
73572;DHT22;61854;48.510;-2.770;2023-05-16T16:18:43;23.20;33.60
73572;DHT22;61854;48.510;-2.770;2023-05-16T16:21:09;23.70;32.60
73572;DHT22;61854;48.510;-2.770;2023-05-16T16:23:35;23.80;32.10
73572;DHT22;61854;48.510;-2.770;2023-05-16T16:26:01;23.70;32.00
73572;DHT22;61854;48.510;-2.770;2023-05-16T16:28:26;23.50;32.30